Rawlins Municipal Harvey Field
KRWL : rendu visible

Aérodrome :











RETROUVEZ-NOUS SUR...

 
LOGIN :

S'inscrire | Disclaimer

   EN    FR    IT 

 









Légende :    VFR   VFR Marginal   IFR   IFR Intensif   IFR Très Intensif
Visi : 
Plafond : 
>= 8 km
>= 3000ft
5 à 8 km
1000 à 3000 ft
1500m à 5 km
500 à 1000 ft
800 à 1500m
200 à 500 ft
< 800m
< 200 ft
Symboles :   Orages  Brouillard  Fortes neiges  Fortes précipitations  Vent > 20 kt






- Altitude de l'aérodrome : 6813 ft


KRWL - Rawlins Municipal Harvey Field

DERNIER METAR :
  • 240653Z AUTO 24012KT 10SM FEW046 BKN060 OVC090 M02/M07 A2986 RMK AO2 SLP095 T10171067 400941061

METARs EXPIRÉS :
  • 240553Z AUTO 25008KT 10SM BKN046 OVC075 M01/M07 A2986 RMK AO2 SLP094 T10111072 10028 21017 52006
  • 240453Z AUTO 28008KT 10SM OVC075 M01/M07 A2985 RMK AO2 SLP095 T10061067

TAF KRWL
Valide du 24 à 06h jusqu'au 25 à 06h UTC


240520Z 2406/2506 28008KT P6SM OVC070
FM241200 VRB06KT P6SM OVC040
FM241900 27011KT P6SM SCT050
FM250400 25010G20KT P6SM SKC
FIR KZDV / Amérique du Nord



MET'MAP, la Météo Aéronautique d'un coup d'oeil ! - Copyright ORBIFLY Décembre 2007 - Disclaimer

ORBIFLY MET'MAP TEAM :

Programmation & Développement : Alexandra Zaïnal
Sur une idée originale de : Baudouin d'Aumeries
Assistance à la programmation : Marc-Olivier Méhu
Soutien technique & logistique : Manuel Goepfert

Contact : metmap@orbifly.com




SOURCES & CREDITS :

   NOAA       Earth
Advisory